Terminal Aerodrome Forecast
Issued by NWS Goodland, KS

Home | Current Version | Previous Version | Text Only | Print | Product List | Glossary On
Versions: 1 2 3 4 5 6 7 8 9 10 11
732
FTUS43 KGLD 050520
TAFGLD
TAF
KGLD 050520Z 0506/0606 26006KT P6SM OVC070
     FM050900 28006KT 6SM -SN BR BKN035
     FM051200 28006KT 3SM -SN BR SCT007 BKN015
     FM051600 31011KT P6SM SCT015 BKN035
     FM051700 32014G24KT P6SM FEW035 SCT060 SCT130
     FM060000 32010KT P6SM SKC
     FM060200 29009KT P6SM SKC=

USA.gov is the U.S. government's official web portal to all federal, state and local government web resources and services.